createdAt,value
2019-02-25T00:00:50.659Z,3.92
2019-02-25T00:03:18.817Z,3.08
2019-02-25T00:05:47.057Z,3.35
2019-02-25T00:08:15.270Z,3.20
2019-02-25T00:10:43.451Z,3.30
2019-02-25T00:13:11.741Z,2.72
2019-02-25T00:15:40.121Z,2.77
2019-02-25T00:18:08.262Z,3.30
2019-02-25T00:20:36.525Z,3.50
2019-02-25T00:23:04.857Z,3.65
2019-02-25T00:25:32.984Z,3.90
2019-02-25T00:28:01.472Z,3.22
2019-02-25T00:30:29.618Z,2.92
2019-02-25T00:32:57.834Z,2.87
2019-02-25T00:35:25.898Z,2.35
2019-02-25T00:37:54.106Z,3.40
2019-02-25T00:40:22.304Z,2.92
2019-02-25T00:42:50.436Z,3.22
2019-02-25T00:45:18.694Z,3.42
2019-02-25T00:47:47.014Z,3.70
2019-02-25T00:50:15.241Z,2.65
2019-02-25T00:52:43.537Z,3.40
2019-02-25T00:55:11.932Z,3.10
2019-02-25T00:57:40.080Z,3.37
2019-02-25T01:00:11.082Z,2.95
2019-02-25T01:02:39.195Z,3.15
2019-02-25T01:05:07.723Z,3.20
2019-02-25T01:07:35.837Z,3.42
2019-02-25T01:10:04.702Z,3.42
2019-02-25T01:12:32.840Z,3.80
2019-02-25T01:15:01.023Z,3.37
2019-02-25T01:17:29.295Z,3.87
2019-02-25T01:19:57.448Z,3.42
2019-02-25T01:22:25.615Z,3.45
2019-02-25T01:24:53.826Z,2.87
2019-02-25T01:27:22.271Z,3.62
2019-02-25T01:29:50.378Z,3.60
2019-02-25T01:32:18.601Z,3.72
2019-02-25T01:34:46.783Z,3.15
2019-02-25T01:37:14.889Z,3.08
2019-02-25T01:39:43.322Z,3.37
2019-02-25T01:42:11.514Z,2.83
2019-02-25T01:44:39.675Z,3.45
2019-02-25T01:47:07.929Z,3.70
2019-02-25T01:49:36.148Z,3.47
2019-02-25T01:52:04.292Z,3.47
2019-02-25T01:54:32.491Z,3.45
2019-02-25T01:57:00.690Z,3.40
2019-02-25T01:59:28.905Z,3.72
2019-02-25T02:01:57.089Z,3.85
2019-02-25T02:04:25.289Z,3.58
2019-02-25T02:06:53.439Z,2.95
2019-02-25T02:09:21.600Z,3.55
2019-02-25T02:11:49.801Z,2.87
2019-02-25T02:14:18.063Z,3.30
2019-02-25T02:16:46.242Z,3.62
2019-02-25T02:19:14.659Z,2.60
2019-02-25T02:21:42.847Z,2.90
2019-02-25T02:24:11.085Z,3.37
2019-02-25T02:26:39.266Z,3.22
2019-02-25T02:29:07.491Z,3.58
2019-02-25T02:31:35.674Z,4.03
2019-02-25T02:34:03.817Z,2.65
2019-02-25T02:36:32.039Z,2.67
2019-02-25T02:39:00.196Z,2.95
2019-02-25T02:41:28.400Z,2.33
2019-02-25T02:43:56.546Z,2.72
2019-02-25T02:46:52.589Z,3.12
2019-02-25T02:49:20.797Z,2.75
2019-02-25T02:51:48.980Z,3.60
2019-02-25T02:54:17.332Z,3.17
2019-02-25T02:56:45.488Z,4.08
2019-02-25T02:59:13.636Z,3.80
2019-02-25T03:01:41.983Z,3.08
2019-02-25T03:04:10.143Z,3.80
2019-02-25T03:06:38.386Z,3.27
2019-02-25T03:11:55.737Z,3.22
2019-02-25T03:14:23.842Z,3.00
2019-02-25T03:16:52.103Z,3.55
2019-02-25T03:19:20.285Z,3.55
2019-02-25T03:21:48.547Z,3.70
2019-02-25T03:24:16.823Z,2.75
2019-02-25T03:26:45.077Z,2.95
2019-02-25T03:29:13.296Z,3.15
2019-02-25T03:31:41.426Z,3.55
2019-02-25T03:34:09.596Z,3.08
2019-02-25T03:36:37.777Z,2.90
2019-02-25T03:39:07.261Z,2.83
2019-02-25T03:41:35.408Z,3.45
2019-02-25T03:44:03.637Z,3.10
2019-02-25T03:46:31.782Z,3.20
2019-02-25T03:48:59.921Z,3.65
2019-02-25T03:51:28.213Z,3.20
2019-02-25T03:53:56.389Z,3.10
2019-02-25T03:56:24.541Z,2.42
2019-02-25T03:58:52.718Z,2.80
2019-02-25T04:01:20.869Z,2.58
2019-02-25T04:03:49.215Z,3.05
2019-02-25T04:06:17.439Z,3.20
2019-02-25T04:08:45.559Z,3.20
2019-02-25T04:11:13.784Z,4.22
2019-02-25T04:13:41.943Z,2.92
2019-02-25T04:16:10.102Z,3.45
2019-02-25T04:18:38.295Z,2.85
2019-02-25T04:21:06.621Z,3.37
2019-02-25T04:23:34.796Z,3.40
2019-02-25T04:26:03.101Z,2.65
2019-02-25T04:28:31.193Z,3.27
2019-02-25T04:30:59.371Z,3.75
2019-02-25T04:33:27.542Z,3.22
2019-02-25T04:35:55.677Z,3.20
2019-02-25T04:38:23.815Z,3.70
2019-02-25T04:40:52.036Z,3.60
2019-02-25T04:43:20.327Z,3.47
2019-02-25T04:45:48.485Z,3.65
2019-02-25T04:48:16.680Z,3.55
2019-02-25T04:50:44.860Z,4.03
2019-02-25T04:53:13.183Z,3.58
2019-02-25T04:55:41.339Z,3.67
2019-02-25T04:58:09.542Z,3.87
2019-02-25T05:00:37.754Z,3.05
2019-02-25T05:03:05.849Z,4.37
2019-02-25T05:05:34.029Z,4.03
2019-02-25T05:08:02.139Z,2.62
2019-02-25T05:10:30.386Z,3.55
2019-02-25T05:13:03.227Z,3.65
2019-02-25T05:15:31.790Z,3.40
2019-02-25T05:17:59.974Z,3.62
2019-02-25T05:20:28.113Z,3.60
2019-02-25T05:22:56.288Z,4.50
2019-02-25T05:25:24.410Z,4.37
2019-02-25T05:27:52.617Z,4.75
2019-02-25T05:30:20.702Z,4.70
2019-02-25T05:32:48.906Z,4.25
2019-02-25T05:35:16.992Z,3.98
2019-02-25T05:37:45.139Z,3.92
2019-02-25T05:40:14.879Z,3.55
2019-02-25T05:42:43.266Z,3.50
2019-02-25T05:45:11.653Z,3.87
2019-02-25T05:47:39.839Z,4.25
2019-02-25T05:50:10.089Z,3.72
2019-02-25T05:52:38.277Z,3.92
2019-02-25T05:55:07.934Z,3.92
2019-02-25T05:57:36.135Z,4.28
2019-02-25T06:00:04.809Z,2.92
2019-02-25T06:02:33.119Z,2.87
2019-02-25T06:05:21.273Z,3.05
2019-02-25T06:07:49.663Z,3.72
2019-02-25T06:10:17.842Z,4.15
2019-02-25T06:12:46.039Z,4.05
2019-02-25T06:15:14.908Z,3.67
2019-02-25T06:17:43.010Z,4.15
2019-02-25T06:20:11.883Z,4.03
2019-02-25T06:22:40.091Z,4.37
2019-02-25T06:25:08.567Z,3.87
2019-02-25T06:27:36.768Z,3.52
2019-02-25T06:30:06.043Z,4.17
2019-02-25T06:32:34.216Z,3.95
2019-02-25T06:35:02.338Z,4.33
2019-02-25T06:37:30.524Z,3.80
2019-02-25T06:39:58.678Z,4.70
2019-02-25T06:42:27.026Z,3.95
2019-02-25T06:44:55.269Z,4.45
2019-02-25T06:47:23.438Z,4.50
2019-02-25T06:49:51.691Z,4.12
2019-02-25T06:52:20.215Z,4.67
2019-02-25T06:54:48.415Z,4.78
2019-02-25T06:57:16.658Z,4.33
2019-02-25T06:59:44.864Z,5.40
2019-02-25T07:02:13.097Z,5.10
2019-02-25T07:04:48.809Z,4.37
2019-02-25T07:07:35.977Z,4.72
2019-02-25T07:10:22.013Z,4.80
2019-02-25T07:13:06.277Z,5.12
2019-02-25T07:15:53.419Z,4.58
2019-02-25T07:18:40.719Z,5.50
2019-02-25T07:21:26.786Z,5.17
2019-02-25T07:24:16.772Z,5.62
2019-02-25T07:27:07.138Z,7.47
2019-02-25T07:29:54.270Z,7.62
2019-02-25T07:32:39.412Z,7.45
2019-02-25T07:35:16.527Z,7.15
2019-02-25T07:38:16.294Z,6.65
2019-02-25T07:41:09.609Z,6.80
2019-02-25T07:44:05.722Z,7.25
2019-02-25T07:46:47.503Z,7.55
2019-02-25T07:49:37.827Z,7.25
2019-02-25T07:52:33.846Z,7.42
2019-02-25T07:55:21.074Z,6.53
2019-02-25T07:57:58.935Z,7.28
2019-02-25T08:00:46.152Z,7.53
2019-02-25T08:03:48.304Z,9.05
2019-02-25T08:06:31.723Z,7.25
2019-02-25T08:09:18.743Z,7.05
2019-02-25T08:11:58.962Z,6.58
2019-02-25T08:14:48.999Z,6.03
2019-02-25T08:17:34.837Z,6.37
2019-02-25T08:20:19.557Z,6.25
2019-02-25T08:23:06.892Z,5.72
2019-02-25T08:25:44.920Z,6.80
2019-02-25T08:28:32.601Z,5.95
2019-02-25T08:31:18.586Z,6.25
2019-02-25T08:34:18.134Z,5.20
2019-02-25T08:37:42.630Z,7.00
2019-02-25T08:40:40.042Z,7.80
2019-02-25T08:43:42.814Z,7.47
2019-02-25T08:46:33.043Z,7.40
2019-02-25T08:49:04.840Z,7.12
2019-02-25T08:51:32.990Z,7.75
2019-02-25T08:54:01.207Z,12.90
2019-02-25T08:56:29.436Z,9.98
2019-02-25T08:58:57.582Z,8.45
2019-02-25T09:01:25.809Z,9.68
2019-02-25T09:03:54.003Z,8.75
2019-02-25T09:06:22.221Z,8.45
2019-02-25T09:08:50.424Z,7.60
2019-02-25T09:11:18.625Z,6.30
2019-02-25T09:13:46.765Z,5.28
2019-02-25T09:16:15.009Z,4.95
2019-02-25T09:18:43.141Z,5.65
2019-02-25T09:21:11.460Z,6.25
2019-02-25T09:23:39.563Z,4.72
2019-02-25T09:26:07.675Z,5.33
2019-02-25T09:28:35.855Z,5.60
2019-02-25T09:31:05.629Z,4.97
2019-02-25T09:33:33.953Z,4.50
2019-02-25T09:36:02.138Z,4.40
2019-02-25T09:38:30.358Z,4.50
2019-02-25T09:40:58.629Z,4.47
2019-02-25T09:43:27.167Z,4.53
2019-02-25T09:45:55.353Z,4.28
2019-02-25T09:48:23.757Z,5.37
2019-02-25T09:50:51.971Z,4.37
2019-02-25T09:53:20.220Z,4.28
2019-02-25T09:55:48.378Z,4.37
2019-02-25T09:58:16.665Z,3.87
2019-02-25T10:00:46.161Z,4.35
2019-02-25T10:03:14.461Z,4.60
2019-02-25T10:05:42.789Z,4.30
2019-02-25T10:08:11.129Z,4.70
2019-02-25T10:10:39.367Z,4.42
2019-02-25T10:13:07.591Z,3.87
2019-02-25T10:15:35.815Z,4.45
2019-02-25T10:18:04.110Z,3.87
2019-02-25T10:20:32.282Z,3.65
2019-02-25T10:23:00.637Z,3.42
2019-02-25T10:25:28.929Z,4.03
2019-02-25T10:27:57.161Z,4.33
2019-02-25T10:30:25.363Z,3.92
2019-02-25T10:32:53.530Z,4.12
2019-02-25T10:35:21.792Z,4.37
2019-02-25T10:37:49.969Z,4.37
2019-02-25T10:40:22.164Z,3.75
2019-02-25T10:42:48.121Z,4.28
2019-02-25T10:45:17.198Z,5.22
2019-02-25T10:47:46.608Z,3.98
2019-02-25T10:50:15.972Z,3.33
2019-02-25T10:52:44.923Z,3.77
2019-02-25T10:55:17.913Z,3.02
2019-02-25T10:57:46.181Z,3.98
2019-02-25T11:00:15.732Z,3.87
2019-02-25T11:02:44.626Z,3.02
2019-02-25T11:05:14.047Z,3.45
2019-02-25T11:07:42.199Z,3.80
2019-02-25T11:10:18.267Z,3.95
2019-02-25T11:12:46.559Z,3.77
2019-02-25T11:15:16.017Z,4.12
2019-02-25T11:17:45.542Z,4.12
2019-02-25T11:20:14.338Z,3.65
2019-02-25T11:22:44.071Z,3.85
2019-02-25T11:25:12.667Z,4.40
2019-02-25T11:27:40.965Z,4.60
2019-02-25T11:30:11.966Z,3.67
2019-02-25T11:32:40.006Z,3.62
2019-02-25T11:35:10.691Z,2.75
2019-02-25T11:37:38.613Z,3.62
2019-02-25T11:40:08.197Z,2.72
2019-02-25T11:42:36.365Z,3.20
2019-02-25T11:45:05.421Z,3.50
2019-02-25T11:47:34.037Z,2.58
2019-02-25T11:50:02.233Z,3.20
2019-02-25T11:52:30.446Z,3.58
2019-02-25T11:54:58.720Z,3.12
2019-02-25T11:57:27.009Z,2.20
2019-02-25T11:59:55.211Z,2.47
2019-02-25T12:02:25.992Z,2.50
2019-02-25T12:04:53.399Z,2.20
2019-02-25T12:07:21.914Z,1.98
2019-02-25T12:09:50.098Z,1.77
2019-02-25T12:12:18.426Z,2.37
2019-02-25T12:14:46.593Z,1.80
2019-02-25T12:17:14.757Z,1.47
2019-02-25T12:19:42.934Z,0.85
2019-02-25T12:22:11.147Z,1.10
2019-02-25T12:24:39.353Z,1.50
2019-02-25T12:27:07.826Z,1.47
2019-02-25T12:29:36.129Z,1.20
2019-02-25T12:32:04.643Z,1.20
2019-02-25T12:34:32.821Z,0.90
2019-02-25T12:37:01.217Z,1.07
2019-02-25T12:39:29.464Z,0.95
2019-02-25T12:41:57.676Z,0.82
2019-02-25T12:44:26.221Z,0.70
2019-02-25T12:46:54.391Z,1.32
2019-02-25T12:49:22.677Z,1.25
2019-02-25T12:51:50.783Z,0.95
2019-02-25T12:54:19.100Z,1.00
2019-02-25T12:56:47.494Z,1.17
2019-02-25T12:59:15.695Z,1.20
2019-02-25T13:01:43.881Z,0.90
2019-02-25T13:04:12.050Z,0.90
2019-02-25T13:06:40.338Z,0.72
2019-02-25T13:09:13.468Z,1.25
2019-02-25T13:11:41.682Z,1.12
2019-02-25T13:14:09.859Z,1.00
2019-02-25T13:16:38.150Z,0.60
2019-02-25T13:19:06.379Z,1.20
2019-02-25T13:21:34.706Z,0.53
2019-02-25T13:24:04.607Z,0.90
2019-02-25T13:26:33.997Z,0.42
2019-02-25T13:29:02.776Z,0.57
2019-02-25T13:31:31.026Z,0.42
2019-02-25T13:34:00.404Z,0.50
2019-02-25T13:36:28.616Z,0.53
2019-02-25T13:38:56.843Z,0.50
2019-02-25T13:41:25.319Z,0.60
2019-02-25T13:43:53.506Z,0.50
2019-02-25T13:46:21.835Z,0.50
2019-02-25T13:48:50.066Z,0.68
2019-02-25T13:51:18.261Z,0.60
2019-02-25T13:53:46.447Z,0.70
2019-02-25T13:56:14.803Z,0.47
2019-02-25T13:58:43.435Z,0.70
2019-02-25T14:01:13.091Z,0.60
2019-02-25T14:03:41.452Z,0.70
2019-02-25T14:06:09.917Z,0.72
2019-02-25T14:08:38.071Z,0.60
2019-02-25T14:11:06.405Z,0.33
2019-02-25T14:13:34.613Z,0.60
2019-02-25T14:16:02.934Z,0.80
2019-02-25T14:18:31.303Z,0.70
2019-02-25T14:20:59.581Z,0.70
2019-02-25T14:23:27.910Z,0.60
2019-02-25T14:25:58.799Z,0.70
2019-02-25T14:28:26.425Z,0.60
2019-02-25T14:30:54.839Z,0.60
2019-02-25T14:33:23.694Z,0.50
2019-02-25T14:35:53.098Z,0.65
2019-02-25T14:38:23.248Z,0.80
2019-02-25T14:40:53.851Z,0.80
2019-02-25T14:45:53.967Z,1.25
2019-02-25T14:50:49.661Z,1.22
2019-02-25T14:53:17.906Z,0.93
2019-02-25T14:55:47.781Z,1.00
2019-02-25T15:00:45.825Z,1.47
2019-02-25T15:03:14.194Z,1.25
2019-02-25T15:05:42.766Z,2.17
2019-02-25T15:08:11.300Z,2.00
2019-02-25T15:10:40.784Z,2.10
2019-02-25T15:13:10.598Z,2.70
2019-02-25T15:15:41.129Z,2.30
2019-02-25T15:18:09.908Z,2.40
2019-02-25T15:20:38.222Z,2.95
2019-02-25T15:23:07.507Z,2.95
2019-02-25T15:25:36.593Z,2.25
2019-02-25T15:28:09.365Z,2.50
2019-02-25T15:30:35.698Z,1.35
2019-02-25T15:33:03.911Z,1.42
2019-02-25T15:35:34.576Z,2.65
2019-02-25T15:38:02.023Z,2.47
2019-02-25T15:40:30.290Z,2.72
2019-02-25T15:43:03.352Z,2.30
2019-02-25T15:45:35.002Z,2.08
2019-02-25T15:48:03.475Z,2.83
2019-02-25T15:50:32.086Z,2.70
2019-02-25T15:53:02.791Z,3.00
2019-02-25T15:55:31.090Z,2.10
2019-02-25T15:57:59.327Z,2.40
2019-02-25T16:00:30.048Z,2.58
2019-02-25T16:02:58.985Z,2.92
2019-02-25T16:05:29.522Z,2.77
2019-02-25T16:08:00.664Z,2.65
2019-02-25T16:10:28.569Z,2.80
2019-02-25T16:12:57.762Z,2.80
2019-02-25T16:15:27.236Z,2.87
2019-02-25T16:17:56.403Z,2.52
2019-02-25T16:20:25.506Z,2.47
2019-02-25T16:22:56.349Z,2.70
2019-02-25T16:25:25.243Z,2.87
2019-02-25T16:27:54.239Z,2.55
2019-02-25T16:30:25.799Z,2.83
2019-02-25T16:32:53.659Z,2.45
2019-02-25T16:35:21.994Z,2.87
2019-02-25T16:37:50.754Z,3.20
2019-02-25T16:40:20.256Z,3.08
2019-02-25T16:42:54.991Z,2.27
2019-02-25T16:45:22.043Z,3.62
2019-02-25T16:47:50.267Z,3.77
2019-02-25T16:50:19.282Z,3.12
2019-02-25T16:52:49.364Z,3.72
2019-02-25T16:55:19.979Z,3.27
2019-02-25T16:57:48.226Z,3.92
2019-02-25T17:00:17.516Z,3.90
2019-02-25T17:02:47.733Z,3.40
2019-02-25T17:05:15.810Z,3.00
2019-02-25T17:07:44.716Z,2.83
2019-02-25T17:10:16.143Z,2.62
2019-02-25T17:12:45.707Z,2.50
2019-02-25T17:15:15.896Z,2.12
2019-02-25T17:17:44.087Z,2.00
2019-02-25T17:20:14.022Z,2.00
2019-02-25T17:22:42.417Z,2.20
2019-02-25T17:25:12.086Z,1.80
2019-02-25T17:27:40.945Z,2.90
2019-02-25T17:30:15.191Z,2.62
2019-02-25T17:32:44.135Z,1.77
2019-02-25T17:35:14.994Z,1.87
2019-02-25T17:37:43.552Z,2.15
2019-02-25T17:40:13.122Z,2.67
2019-02-25T17:42:41.615Z,3.12
2019-02-25T17:45:12.670Z,2.37
2019-02-25T17:47:41.932Z,2.40
2019-02-25T17:50:11.852Z,3.72
2019-02-25T17:52:42.535Z,3.50
2019-02-25T17:55:12.970Z,3.50
2019-02-25T17:57:41.246Z,3.98
2019-02-25T18:02:57.167Z,2.55
2019-02-25T18:05:26.177Z,4.12
2019-02-25T18:07:54.500Z,4.17
2019-02-25T18:10:24.724Z,4.47
2019-02-25T18:12:54.563Z,4.35
2019-02-25T18:15:26.172Z,6.55
2019-02-25T18:17:55.480Z,6.53
2019-02-25T18:20:24.413Z,13.20
2019-02-25T18:22:52.803Z,8.25
2019-02-25T18:25:21.147Z,4.90
2019-02-25T18:27:50.470Z,4.97
2019-02-25T18:30:20.979Z,5.00
2019-02-25T18:32:50.468Z,3.80
2019-02-25T18:35:21.197Z,4.42
2019-02-25T18:37:50.012Z,4.97
2019-02-25T18:40:20.681Z,4.28
2019-02-25T18:45:18.433Z,4.53
2019-02-25T18:47:50.385Z,4.20
2019-02-25T18:50:21.760Z,4.60
2019-02-25T18:52:52.908Z,3.60
2019-02-25T18:55:23.268Z,5.47
2019-02-25T18:57:53.388Z,6.30
2019-02-25T19:00:29.969Z,4.97
2019-02-25T19:03:00.360Z,4.90
2019-02-25T19:05:31.453Z,4.75
2019-02-25T19:08:02.334Z,4.85
2019-02-25T19:10:31.208Z,4.28
2019-02-25T19:13:03.022Z,4.03
2019-02-25T19:15:31.838Z,4.97
2019-02-25T19:18:00.769Z,4.12
2019-02-25T19:20:29.717Z,3.83
2019-02-25T19:23:02.601Z,4.95
2019-02-25T19:25:29.588Z,6.75
2019-02-25T19:27:58.757Z,5.50
2019-02-25T19:30:29.775Z,4.90
2019-02-25T19:33:09.057Z,4.40
2019-02-25T19:38:01.238Z,5.45
2019-02-25T19:40:29.409Z,5.67
2019-02-25T19:42:59.537Z,8.78
2019-02-25T19:45:28.016Z,11.33
2019-02-25T19:47:58.365Z,10.00
2019-02-25T19:52:56.042Z,8.48
2019-02-25T19:55:24.450Z,7.87
2019-02-25T19:57:52.906Z,9.23
2019-02-25T20:00:30.267Z,7.75
2019-02-25T20:03:05.218Z,7.75
2019-02-25T20:05:29.315Z,7.87
2019-02-25T20:07:57.871Z,6.47
2019-02-25T20:10:26.094Z,6.70
2019-02-25T20:12:55.616Z,7.08
2019-02-25T20:15:25.238Z,7.92
2019-02-25T20:17:55.265Z,8.08
2019-02-25T20:23:17.323Z,5.47
2019-02-25T20:25:48.781Z,7.73
2019-02-25T20:28:18.643Z,6.55
2019-02-25T20:30:48.960Z,7.33
2019-02-25T20:33:17.631Z,6.70
2019-02-25T20:35:51.034Z,5.05
2019-02-25T20:38:16.851Z,6.05
2019-02-25T20:40:50.817Z,7.10
2019-02-25T20:43:21.267Z,8.60
2019-02-25T20:45:52.103Z,7.25
2019-02-25T20:48:19.129Z,6.70
2019-02-25T20:50:48.398Z,6.35
2019-02-25T20:53:17.007Z,8.53
2019-02-25T20:55:45.548Z,7.92
2019-02-25T20:58:16.256Z,5.50
2019-02-25T21:00:46.491Z,7.00
2019-02-25T21:05:46.660Z,7.08
2019-02-25T21:08:16.911Z,7.08
2019-02-25T21:10:46.049Z,7.03
2019-02-25T21:13:14.456Z,7.25
2019-02-25T21:15:45.291Z,5.15
2019-02-25T21:18:13.398Z,6.83
2019-02-25T21:20:43.041Z,7.47
2019-02-25T21:23:12.547Z,7.72
2019-02-25T21:25:41.131Z,6.50
2019-02-25T21:28:11.253Z,6.42
2019-02-25T21:30:41.344Z,5.55
2019-02-25T21:33:13.335Z,7.92
2019-02-25T21:35:40.209Z,5.83
2019-02-25T21:38:09.461Z,7.30
2019-02-25T21:40:37.882Z,7.50
2019-02-25T21:43:06.275Z,6.92
2019-02-25T21:45:34.584Z,7.20
2019-02-25T21:48:04.789Z,7.75
2019-02-25T21:50:34.040Z,6.53
2019-02-25T21:53:04.910Z,7.47
2019-02-25T21:55:34.790Z,7.33
2019-02-25T21:58:04.849Z,7.62
2019-02-25T22:00:35.133Z,8.35
2019-02-25T22:03:04.493Z,8.53
2019-02-25T22:05:32.542Z,5.53
2019-02-25T22:08:02.274Z,5.55
2019-02-25T22:10:34.054Z,8.03
2019-02-25T22:13:04.382Z,7.55
2019-02-25T22:15:31.122Z,7.83
2019-02-25T22:17:59.344Z,8.10
2019-02-25T22:20:27.522Z,7.15
2019-02-25T22:22:57.434Z,9.40
2019-02-25T22:25:25.738Z,7.85
2019-02-25T22:27:53.965Z,5.67
2019-02-25T22:30:22.238Z,6.22
2019-02-25T22:32:50.638Z,7.90
2019-02-25T22:35:19.070Z,7.17
2019-02-25T22:37:49.623Z,7.33
2019-02-25T22:40:17.565Z,7.95
2019-02-25T22:42:49.830Z,8.05
2019-02-25T22:45:18.884Z,7.15
2019-02-25T22:47:47.043Z,6.80
2019-02-25T22:50:15.442Z,6.03
2019-02-25T22:52:43.535Z,6.75
2019-02-25T22:55:12.932Z,6.33
2019-02-25T22:57:43.468Z,6.90
2019-02-25T23:00:52.722Z,6.65
2019-02-25T23:03:24.571Z,5.25
2019-02-25T23:05:53.414Z,5.47
2019-02-25T23:08:23.413Z,6.17
2019-02-25T23:10:52.296Z,6.92
2019-02-25T23:13:22.686Z,8.10
2019-02-25T23:15:51.721Z,7.70
2019-02-25T23:18:22.894Z,7.70
2019-02-25T23:20:54.454Z,5.72
2019-02-25T23:23:23.466Z,7.70
2019-02-25T23:25:51.406Z,7.28
2019-02-25T23:28:22.919Z,7.70
2019-02-25T23:30:50.846Z,8.65
2019-02-25T23:33:21.832Z,8.20
2019-02-25T23:35:49.717Z,8.05
2019-02-25T23:38:18.999Z,7.08
2019-02-25T23:40:47.238Z,7.17
2019-02-25T23:43:16.832Z,7.00
2019-02-25T23:45:46.381Z,7.20
2019-02-25T23:48:14.565Z,6.30
2019-02-25T23:50:42.839Z,6.20
2019-02-25T23:53:11.005Z,5.72
2019-02-25T23:55:39.135Z,6.10
2019-02-25T23:58:10.267Z,6.37
